Aviation Digital Data Service (ADDS)

Output produced by METARs form (2320 UTC 18 August 2019)
found at http://www.aviationweather.gov/metar/data/
 
Forecast for: KTCL (TUSCALOOSA , AL, US)
Text: KTCL 181731Z 1818/1918 VRB06KT P6SM FEW050
Forecast period: 1800 UTC 18 August 2019 to 0100 UTC 19 August 2019
Forecast type: FROM: standard forecast or significant change
Winds: variable direction winds at 7 MPH (6 knots; 3.1 m/s)
Visibility: 6 or more miles 10+ km)
Ceiling: at least 12,000 feet AGL
Clouds: few clouds at 5000 feet AGL
Weather: no significant weather forecast for this period
Text: FM190100 16002KT P6SM SKC
Forecast period: 0100 to 1800 UTC 19 August 2019
Forecast type: FROM: standard forecast or significant change
Winds: from the SSE (160 degrees) at 2 MPH (2 knots; 1.0 m/s)
Visibility: 6 or more miles 10+ km)
Clouds: clear skies
Weather: no significant weather forecast for this period